Time;durP1;ratioP1;P1;durP2;ratioP2;P2;SDS_P1;SDS_P2;PMS_P1;PMS_P2;Temp;Humidity;BMP_temperature;BMP_pressure;BME280_temperature;BME280_humidity;BME280_pressure;Samples;Min_cycle;Max_cycle;Signal;HPM_P1;HPM_P2
2022/10/26 00:01:43;;;;;;;17.60;11.60;;;;;;;9.95;100.00;101214.80;107843;1258;70634;-71
2022/10/26 00:04:12;;;;;;;19.20;11.40;;;;;;;9.94;100.00;101216.62;107708;1267;59774;-71
2022/10/26 00:06:40;;;;;;;22.80;12.30;;;;;;;9.92;100.00;101215.66;107760;1263;74085;-70
2022/10/26 00:09:09;;;;;;;19.40;11.00;;;;;;;9.91;100.00;101215.39;107780;1260;57452;-70
2022/10/26 00:11:38;;;;;;;17.40;11.60;;;;;;;9.87;100.00;101213.89;107785;1270;61118;-71
2022/10/26 00:14:06;;;;;;;16.30;11.00;;;;;;;9.86;100.00;101218.28;107761;1263;63248;-69
2022/10/26 00:16:35;;;;;;;18.90;12.00;;;;;;;9.82;100.00;101217.84;107814;1258;72063;-70
2022/10/26 00:19:03;;;;;;;16.60;11.10;;;;;;;9.77;100.00;101225.07;107719;1255;59388;-70
2022/10/26 00:21:32;;;;;;;16.00;11.30;;;;;;;9.73;100.00;101225.66;107630;1261;72962;-71
2022/10/26 00:24:00;;;;;;;18.70;11.50;;;;;;;9.68;100.00;101224.76;107528;1265;57918;-70
2022/10/26 00:26:29;;;;;;;15.80;10.70;;;;;;;9.64;100.00;101227.30;107603;1260;57085;-70
2022/10/26 00:28:57;;;;;;;18.80;11.70;;;;;;;9.61;100.00;101221.94;107627;1255;73431;-70
2022/10/26 00:31:26;;;;;;;18.20;11.50;;;;;;;9.58;100.00;101223.48;107782;1261;62137;-71
2022/10/26 00:33:56;;;;;;;16.50;11.10;;;;;;;9.55;100.00;101225.89;107519;1256;70310;-70
2022/10/26 00:36:25;;;;;;;18.40;12.70;;;;;;;9.50;100.00;101226.73;107658;1264;73211;-69
2022/10/26 00:38:55;;;;;;;17.60;12.40;;;;;;;9.44;100.00;101226.07;107656;1270;63117;-71
2022/10/26 00:41:29;;;;;;;16.00;11.00;;;;;;;9.38;100.00;101230.73;107634;1266;58063;-71
2022/10/26 00:43:58;;;;;;;;;;;;;;;9.34;100.00;101231.15;107611;1270;63320;-71
2022/10/26 00:46:33;;;;;;;17.30;11.40;;;;;;;9.33;100.00;101239.03;107755;1261;72032;-70
2022/10/26 00:49:13;;;;;;;17.30;10.90;;;;;;;9.33;100.00;101229.63;107645;1260;59562;-70
2022/10/26 00:51:47;;;;;;;13.90;10.10;;;;;;;9.36;100.00;101226.37;107558;1270;62436;-69
2022/10/26 00:54:18;;;;;;;19.40;10.20;;;;;;;9.40;100.00;101229.09;107621;1263;57154;-70
2022/10/26 00:56:51;;;;;;;18.20;10.90;;;;;;;9.41;100.00;101224.68;107401;1261;61165;-69
2022/10/26 00:59:21;;;;;;;16.40;10.80;;;;;;;9.46;100.00;101222.46;107628;1263;72469;-68
2022/10/26 01:01:51;;;;;;;17.20;10.70;;;;;;;9.53;100.00;101219.60;107805;1258;60859;-68
2022/10/26 01:04:20;;;;;;;16.60;10.50;;;;;;;9.60;100.00;101219.15;107739;1260;68602;-70
2022/10/26 01:06:50;;;;;;;19.30;11.30;;;;;;;9.68;100.00;101218.52;107557;1263;63744;-70
2022/10/26 01:09:20;;;;;;;14.20;9.60;;;;;;;9.72;100.00;101219.48;107720;1258;57617;-71
2022/10/26 01:11:49;;;;;;;17.00;10.80;;;;;;;9.73;100.00;101220.61;107823;1261;57596;-71
2022/10/26 01:14:19;;;;;;;15.90;11.10;;;;;;;9.78;100.00;101213.18;107789;1259;73439;-69
2022/10/26 01:17:35;;;;;;;16.30;9.70;;;;;;;9.82;100.00;101210.16;107699;1270;72336;-71
2022/10/26 01:20:25;;;;;;;15.30;10.20;;;;;;;9.88;100.00;101212.28;107764;1260;60232;-70
2022/10/26 01:23:11;;;;;;;17.70;11.60;;;;;;;9.94;100.00;101212.77;107734;1263;73002;-70
2022/10/26 01:26:38;;;;;;;16.90;10.90;;;;;;;9.97;100.00;101214.11;107726;1264;57089;-70
2022/10/26 01:29:06;;;;;;;17.70;11.20;;;;;;;10.03;100.00;101216.22;107634;1269;57148;-70
2022/10/26 01:31:54;;;;;;;18.30;11.60;;;;;;;10.05;100.00;101219.17;107648;1260;73162;-69
2022/10/26 01:35:20;;;;;;;20.50;12.20;;;;;;;10.07;100.00;101219.73;107690;1261;72343;-71
2022/10/26 01:38:03;;;;;;;16.00;11.00;;;;;;;10.12;100.00;101214.27;107657;1255;60363;-70
2022/10/26 01:41:02;;;;;;;20.00;11.30;;;;;;;10.17;100.00;101218.31;107558;1267;72959;-70
2022/10/26 01:43:37;;;;;;;16.90;11.50;;;;;;;10.20;100.00;101221.23;107515;1267;61892;-70
2022/10/26 01:46:08;;;;;;;19.10;11.70;;;;;;;10.22;100.00;101221.48;107597;1266;57591;-70
2022/10/26 01:48:40;;;;;;;18.10;11.20;;;;;;;10.23;100.00;101226.30;107590;1266;61933;-68
2022/10/26 01:51:11;;;;;;;17.30;11.10;;;;;;;10.22;100.00;101228.77;107744;1254;72010;-70
2022/10/26 01:53:46;;;;;;;19.00;12.10;;;;;;;10.20;100.00;101230.98;107628;1264;59432;-69
2022/10/26 01:56:24;;;;;;;17.80;12.10;;;;;;;10.21;100.00;101234.75;107371;1263;73043;-69
2022/10/26 01:58:56;;;;;;;16.90;10.80;;;;;;;10.21;100.00;101233.01;107484;1271;57402;-69
2022/10/26 02:02:25;;;;;;;18.50;11.80;;;;;;;10.22;100.00;101228.42;107756;1270;60323;-69
2022/10/26 02:05:19;;;;;;;18.10;12.40;;;;;;;10.25;100.00;101226.52;107346;1269;63448;-69
2022/10/26 02:07:50;;;;;;;15.40;11.20;;;;;;;10.31;100.00;101228.21;107891;1255;72042;-69
2022/10/26 02:10:47;;;;;;;20.80;12.00;;;;;;;10.34;100.00;101223.65;107762;1260;60189;-71
2022/10/26 02:13:27;;;;;;;16.30;11.10;;;;;;;10.36;100.00;101223.90;107677;1267;73729;-70
2022/10/26 02:16:23;;;;;;;16.90;10.30;;;;;;;10.39;100.00;101225.84;107686;1259;62407;-70
2022/10/26 02:19:15;;;;;;;16.00;10.60;;;;;;;10.40;100.00;101224.74;107741;1264;57048;-70
2022/10/26 02:21:51;;;;;;;14.90;10.60;;;;;;;10.42;100.00;101223.33;107701;1262;72061;-71
2022/10/26 02:24:22;;;;;;;20.60;11.70;;;;;;;10.42;100.00;101218.98;107667;1260;61837;-70
2022/10/26 02:26:52;;;;;;;18.50;11.50;;;;;;;10.44;100.00;101218.69;107590;1259;70454;-71
2022/10/26 02:29:23;;;;;;;17.70;11.40;;;;;;;10.46;100.00;101217.68;107716;1266;64108;-71
2022/10/26 02:31:53;;;;;;;17.80;11.80;;;;;;;10.48;100.00;101218.11;107688;1260;62072;-69
2022/10/26 02:34:27;;;;;;;17.30;11.50;;;;;;;10.52;100.00;101221.00;107705;1264;57137;-69
2022/10/26 02:36:59;;;;;;;14.40;10.00;;;;;;;10.60;100.00;101224.14;107691;1262;62869;-71
2022/10/26 02:39:32;;;;;;;13.00;9.70;;;;;;;10.73;100.00;101226.39;107816;1265;72065;-68
2022/10/26 02:42:05;;;;;;;12.40;8.30;;;;;;;10.78;100.00;101226.79;107599;1263;59450;-70
2022/10/26 02:44:56;;;;;;;13.00;9.80;;;;;;;10.90;100.00;101229.64;107704;1265;72936;-71
2022/10/26 02:47:25;;;;;;;16.60;10.00;;;;;;;10.92;100.00;101232.36;107572;1271;62723;-69
2022/10/26 02:49:55;;;;;;;13.90;9.90;;;;;;;10.92;100.00;101237.75;107699;1260;57768;-69
2022/10/26 02:52:55;;;;;;;14.50;9.20;;;;;;;10.91;100.00;101238.30;107781;1256;63003;-71
2022/10/26 02:55:33;;;;;;;18.50;9.60;;;;;;;10.94;100.00;101240.58;107748;1261;71344;-69
2022/10/26 02:58:10;;;;;;;14.10;9.20;;;;;;;10.99;100.00;101243.20;107618;1267;70696;-70
2022/10/26 03:00:39;;;;;;;12.80;8.50;;;;;;;11.07;100.00;101250.86;107666;1266;74084;-69
2022/10/26 03:03:08;;;;;;;10.80;8.10;;;;;;;11.19;100.00;101251.83;107754;1251;62495;-70
2022/10/26 03:05:42;;;;;;;16.30;8.70;;;;;;;11.20;100.00;101258.75;107805;1261;61690;-68
2022/10/26 03:08:11;;;;;;;14.50;9.50;;;;;;;11.16;100.00;101263.48;107732;1264;73194;-69
2022/10/26 03:10:43;;;;;;;15.80;10.00;;;;;;;11.16;100.00;101265.79;107824;1255;72176;-70
2022/10/26 03:13:13;;;;;;;13.10;9.80;;;;;;;11.16;100.00;101269.07;107807;1270;60378;-70
2022/10/26 03:15:41;;;;;;;16.40;10.40;;;;;;;11.14;100.00;101269.54;107595;1265;73047;-72
2022/10/26 03:18:10;;;;;;;15.70;9.60;;;;;;;11.17;100.00;101270.95;107811;1261;57649;-71
2022/10/26 03:20:42;;;;;;;14.60;9.40;;;;;;;11.18;100.00;101271.55;107809;1264;60329;-72
2022/10/26 03:23:11;;;;;;;12.20;9.00;;;;;;;11.22;100.00;101274.45;107766;1264;73785;-72
2022/10/26 03:25:39;;;;;;;16.10;9.90;;;;;;;11.30;100.00;101274.56;107931;1261;72328;-71
2022/10/26 03:28:08;;;;;;;10.80;7.80;;;;;;;11.39;100.00;101274.54;107744;1263;60235;-72
2022/10/26 03:30:37;;;;;;;10.40;7.30;;;;;;;11.49;100.00;101272.33;107842;1260;73539;-71
2022/10/26 03:33:06;;;;;;;13.20;8.20;;;;;;;11.56;100.00;101276.32;107830;1263;62401;-71
2022/10/26 03:35:34;;;;;;;11.50;7.80;;;;;;;11.60;100.00;101274.73;107777;1264;57706;-70
2022/10/26 03:38:03;;;;;;;13.00;8.40;;;;;;;11.63;100.00;101271.88;107932;1255;63523;-70
2022/10/26 03:40:31;;;;;;;11.70;8.10;;;;;;;11.64;100.00;101269.36;107928;1263;72016;-69
2022/10/26 03:43:00;;;;;;;13.10;8.00;;;;;;;11.65;100.00;101269.83;107889;1263;60337;-71
2022/10/26 03:45:29;;;;;;;12.30;8.80;;;;;;;11.69;100.00;101276.90;107766;1261;63148;-70
2022/10/26 03:47:57;;;;;;;14.90;9.40;;;;;;;11.66;100.00;101279.30;107787;1260;62862;-72
2022/10/26 03:50:26;;;;;;;14.40;8.70;;;;;;;11.70;100.00;101280.67;107884;1260;57632;-70
2022/10/26 03:52:54;;;;;;;12.80;8.60;;;;;;;11.72;100.00;101280.14;107893;1260;73439;-70
2022/10/26 03:55:23;;;;;;;13.10;8.60;;;;;;;11.74;100.00;101282.66;107910;1257;61856;-70
2022/10/26 03:57:52;;;;;;;13.40;8.80;;;;;;;11.77;100.00;101281.59;107780;1270;69901;-71
2022/10/26 04:00:20;;;;;;;12.80;8.90;;;;;;;11.79;100.00;101282.52;107801;1260;73277;-72
2022/10/26 04:02:55;;;;;;;11.40;7.30;;;;;;;11.77;100.00;101281.88;107816;1264;61112;-71
2022/10/26 04:05:26;;;;;;;14.10;8.80;;;;;;;11.85;100.00;101284.02;107764;1260;60435;-72
2022/10/26 04:07:58;;;;;;;13.70;9.30;;;;;;;11.87;100.00;101288.73;107586;1270;71561;-73
2022/10/26 04:10:27;;;;;;;10.50;7.90;;;;;;;11.87;100.00;101289.83;107862;1260;72130;-75
2022/10/26 04:12:57;;;;;;;13.40;8.10;;;;;;;11.90;100.00;101292.21;107844;1260;70058;-71
2022/10/26 04:15:27;;;;;;;12.20;9.10;;;;;;;11.88;100.00;101294.81;107794;1260;63039;-71
2022/10/26 04:18:01;;;;;;;12.90;8.20;;;;;;;11.87;100.00;101297.31;107685;1267;62685;-69
2022/10/26 04:20:32;;;;;;;13.20;7.40;;;;;;;11.87;100.00;101304.15;107673;1267;61246;-70
2022/10/26 04:23:04;;;;;;;12.00;8.50;;;;;;;11.88;100.00;101305.43;107688;1267;63331;-71
2022/10/26 04:25:33;;;;;;;16.80;9.30;;;;;;;11.89;100.00;101305.52;107726;1264;61540;-73
2022/10/26 04:28:04;;;;;;;15.40;9.10;;;;;;;11.90;100.00;101305.98;107702;1266;70340;-69
2022/10/26 04:30:34;;;;;;;15.90;9.10;;;;;;;11.94;100.00;101306.06;107675;1268;73232;-70
2022/10/26 04:33:04;;;;;;;18.80;9.40;;;;;;;11.99;100.00;101306.97;107682;1260;63524;-70
2022/10/26 04:35:33;;;;;;;12.30;9.50;;;;;;;12.00;100.00;101303.27;107744;1264;60150;-71
2022/10/26 04:38:04;;;;;;;13.10;8.50;;;;;;;11.96;100.00;101297.59;107708;1260;72536;-71
2022/10/26 04:40:34;;;;;;;13.10;8.60;;;;;;;12.02;100.00;101305.02;107810;1259;61988;-70
2022/10/26 04:43:03;;;;;;;10.20;8.00;;;;;;;12.05;100.00;101305.70;107678;1257;70233;-70
2022/10/26 04:45:31;;;;;;;13.10;8.20;;;;;;;12.06;100.00;101306.34;107709;1260;64259;-70
2022/10/26 04:48:07;;;;;;;11.90;7.90;;;;;;;12.09;100.00;101312.89;107619;1268;60350;-70
2022/10/26 04:50:36;;;;;;;18.00;8.80;;;;;;;12.10;100.00;101316.14;107629;1266;57634;-69
2022/10/26 04:53:09;;;;;;;12.00;7.50;;;;;;;12.12;100.00;101317.06;107694;1263;62851;-71
2022/10/26 04:55:38;;;;;;;11.90;8.00;;;;;;;12.09;100.00;101313.06;107846;1261;70669;-71
2022/10/26 04:58:07;;;;;;;11.00;7.50;;;;;;;12.08;100.00;101316.97;107780;1263;70065;-72
2022/10/26 05:00:35;;;;;;;13.20;8.00;;;;;;;12.08;100.00;101320.11;107826;1256;62851;-72
2022/10/26 05:03:06;;;;;;;13.80;9.00;;;;;;;12.08;100.00;101321.18;107803;1266;57599;-71
2022/10/26 05:05:36;;;;;;;16.90;10.00;;;;;;;12.08;100.00;101318.54;107687;1267;60408;-72
2022/10/26 05:08:05;;;;;;;12.30;8.90;;;;;;;12.08;100.00;101319.80;107835;1256;64459;-71
2022/10/26 05:10:34;;;;;;;14.20;9.30;;;;;;;12.11;100.00;101321.88;107993;1250;71746;-72
2022/10/26 05:13:02;;;;;;;14.00;8.30;;;;;;;12.10;100.00;101326.08;107643;1260;61738;-72
2022/10/26 05:15:31;;;;;;;12.70;9.30;;;;;;;12.23;100.00;101332.71;107842;1260;63159;-72
2022/10/26 05:18:04;;;;;;;12.90;9.20;;;;;;;12.30;100.00;101339.08;107567;1266;62033;-71
2022/10/26 05:20:35;;;;;;;16.50;9.60;;;;;;;12.28;100.00;101334.42;107876;1260;61521;-71
2022/10/26 05:23:10;;;;;;;17.80;9.70;;;;;;;12.25;100.00;101334.52;107786;1260;73756;-72
2022/10/26 05:25:39;;;;;;;18.10;10.30;;;;;;;12.25;100.00;101338.02;107868;1263;62587;-72
2022/10/26 05:28:13;;;;;;;11.90;8.40;;;;;;;12.30;100.00;101343.25;107826;1263;70394;-72
2022/10/26 05:30:44;;;;;;;12.40;8.40;;;;;;;12.37;100.00;101346.95;107809;1255;72696;-72
2022/10/26 05:33:13;;;;;;;11.20;8.30;;;;;;;12.42;100.00;101344.80;107750;1259;61140;-73
2022/10/26 05:35:42;;;;;;;14.30;8.60;;;;;;;12.50;100.00;101344.48;107776;1259;57531;-73
2022/10/26 05:38:16;;;;;;;13.10;7.90;;;;;;;12.61;100.00;101346.16;107801;1263;72671;-72
2022/10/26 05:40:50;;;;;;;11.20;8.00;;;;;;;12.64;100.00;101349.39;107926;1255;72370;-74
2022/10/26 05:43:22;;;;;;;14.50;7.80;;;;;;;12.64;100.00;101355.87;107708;1264;59018;-74
2022/10/26 05:45:50;;;;;;;10.80;7.50;;;;;;;12.61;100.00;101356.98;107818;1259;63252;-75
2022/10/26 05:48:20;;;;;;;14.30;8.70;;;;;;;12.56;100.00;101357.80;107751;1264;57736;-82
2022/10/26 05:50:48;;;;;;;12.10;8.20;;;;;;;12.51;100.00;101360.42;107654;1262;60365;-79
2022/10/26 05:53:17;;;;;;;12.90;8.00;;;;;;;12.49;100.00;101361.30;107826;1260;61985;-77
2022/10/26 05:55:46;;;;;;;15.20;8.70;;;;;;;12.50;100.00;101371.88;107837;1254;60766;-74
2022/10/26 05:58:15;;;;;;;13.10;8.40;;;;;;;12.53;100.00;101375.84;107907;1259;59908;-78
2022/10/26 06:01:16;;;;;;;11.60;7.10;;;;;;;12.57;100.00;101379.40;107945;1257;63138;-74
2022/10/26 06:04:01;;;;;;;10.00;7.50;;;;;;;12.65;100.00;101381.45;107801;1261;57699;-78
2022/10/26 06:06:39;;;;;;;11.90;6.80;;;;;;;12.73;100.00;101385.96;107848;1259;60314;-73
2022/10/26 06:09:13;;;;;;;11.80;6.50;;;;;;;12.83;100.00;101381.58;107722;1264;73376;-81
2022/10/26 06:11:42;;;;;;;12.60;8.00;;;;;;;12.91;98.91;101383.66;107981;1258;61160;-74
2022/10/26 06:14:12;;;;;;;12.90;6.50;;;;;;;12.88;97.25;101379.34;107867;1258;59160;-74
2022/10/26 06:17:17;;;;;;;12.30;7.80;;;;;;;12.90;97.26;101389.13;107753;1263;73638;-75
2022/10/26 06:20:33;;;;;;;11.80;8.60;;;;;;;12.90;97.07;101390.38;107813;1260;61378;-73
2022/10/26 06:23:33;;;;;;;16.10;9.30;;;;;;;12.95;97.41;101393.61;107674;1258;57799;-76
2022/10/26 06:26:16;;;;;;;16.50;9.50;;;;;;;12.98;97.01;101394.51;107829;1260;72662;-73
2022/10/26 06:29:13;;;;;;;12.60;9.50;;;;;;;12.96;96.40;101396.34;107970;1258;61077;-74
2022/10/26 06:31:41;;;;;;;14.70;9.50;;;;;;;12.94;96.23;101392.55;107821;1263;69555;-74
2022/10/26 06:34:21;;;;;;;11.10;8.10;;;;;;;12.97;96.14;101397.22;107679;1262;62754;-73
2022/10/26 06:36:51;;;;;;;13.60;9.50;;;;;;;13.08;95.73;101399.21;108022;1258;62745;-72
2022/10/26 06:39:28;;;;;;;14.60;9.40;;;;;;;13.18;94.40;101409.66;107887;1255;57152;-72
2022/10/26 06:41:57;;;;;;;13.90;9.30;;;;;;;13.26;93.23;101412.25;107879;1264;62136;-72
2022/10/26 06:44:26;;;;;;;16.10;10.90;;;;;;;13.39;92.80;101413.41;107915;1251;61539;-71
2022/10/26 06:47:44;;;;;;;15.70;10.70;;;;;;;13.48;92.56;101409.83;107878;1259;59063;-73
2022/10/26 06:50:44;;;;;;;12.30;9.60;;;;;;;13.58;92.23;101414.16;107302;1269;73958;-71
2022/10/26 06:54:04;;;;;;;13.80;9.30;;;;;;;13.66;91.99;101419.50;107661;1260;63173;-72
2022/10/26 06:56:33;;;;;;;14.40;9.80;;;;;;;13.79;90.63;101422.58;107679;1260;62016;-72
2022/10/26 06:59:16;;;;;;;12.40;9.30;;;;;;;13.83;89.22;101418.74;107817;1255;73518;-73
2022/10/26 07:01:44;;;;;;;12.80;9.70;;;;;;;13.94;88.87;101419.70;107968;1255;61353;-72
2022/10/26 07:04:13;;;;;;;13.60;9.50;;;;;;;13.92;88.61;101417.73;107811;1259;59878;-72
2022/10/26 07:06:41;;;;;;;12.70;9.90;;;;;;;13.95;88.93;101418.19;107848;1257;71974;-74
2022/10/26 07:09:10;;;;;;;15.00;9.50;;;;;;;14.05;88.38;101425.15;107835;1260;58451;-74
2022/10/26 07:11:38;;;;;;;10.30;8.90;;;;;;;14.18;87.81;101422.58;108025;1260;60303;-74
2022/10/26 07:14:07;;;;;;;16.60;9.00;;;;;;;14.29;86.44;101424.58;107932;1260;63168;-72
2022/10/26 07:16:36;;;;;;;11.60;8.70;;;;;;;14.35;86.15;101417.62;108047;1258;61549;-70
2022/10/26 07:19:05;;;;;;;11.30;8.10;;;;;;;14.46;85.13;101418.88;107874;1260;70364;-70
2022/10/26 07:21:33;;;;;;;12.40;8.40;;;;;;;14.48;84.56;101415.58;107570;1260;358830;-71
2022/10/26 07:24:02;;;;;;;13.20;8.70;;;;;;;14.44;85.02;101421.48;107968;1264;57700;-72
2022/10/26 07:26:31;;;;;;;11.50;8.40;;;;;;;14.57;84.45;101417.11;107834;1264;60243;-71
2022/10/26 07:28:59;;;;;;;12.80;8.70;;;;;;;14.55;84.58;101421.54;107822;1256;64254;-71
2022/10/26 07:31:28;;;;;;;11.80;8.10;;;;;;;14.53;84.57;101420.42;107960;1255;60936;-72
2022/10/26 07:33:56;;;;;;;13.70;8.50;;;;;;;14.57;83.93;101421.73;107811;1251;69580;-72
2022/10/26 07:36:25;;;;;;;12.30;9.20;;;;;;;14.57;83.59;101419.29;107763;1260;62753;-72
2022/10/26 07:38:53;;;;;;;12.80;9.30;;;;;;;14.56;84.09;101421.98;107896;1251;63515;-71
2022/10/26 07:41:22;;;;;;;12.40;8.30;;;;;;;14.71;82.82;101427.80;107832;1260;58030;-71
2022/10/26 07:43:51;;;;;;;12.00;7.70;;;;;;;14.78;82.60;101422.73;107846;1260;71438;-73
2022/10/26 07:46:19;;;;;;;10.80;7.70;;;;;;;14.85;82.51;101428.63;107864;1257;61167;-71
2022/10/26 07:48:48;;;;;;;13.40;9.00;;;;;;;14.92;82.21;101428.92;107749;1260;68542;-72
2022/10/26 07:51:16;;;;;;;9.80;8.40;;;;;;;15.01;81.55;101425.92;107736;1265;62929;-71
2022/10/26 07:53:45;;;;;;;13.10;7.60;;;;;;;15.08;81.40;101425.39;107762;1269;57525;-70
2022/10/26 07:56:14;;;;;;;13.60;8.50;;;;;;;15.15;79.92;101430.77;107825;1260;58027;-70
2022/10/26 07:58:43;;;;;;;9.50;7.50;;;;;;;15.18;78.87;101433.20;107802;1256;62049;-72
2022/10/26 08:01:14;;;;;;;10.20;7.00;;;;;;;15.31;78.65;101426.47;107965;1255;72983;-73
2022/10/26 08:03:43;;;;;;;11.00;6.90;;;;;;;15.46;78.04;101424.47;107655;1262;59086;-71
2022/10/26 08:06:13;;;;;;;10.20;6.80;;;;;;;15.45;78.11;101427.68;107888;1260;64047;-72
2022/10/26 08:08:42;;;;;;;10.30;7.10;;;;;;;15.56;77.48;101430.82;107618;1268;57293;-71
2022/10/26 08:11:15;;;;;;;12.70;7.50;;;;;;;15.54;77.47;101430.81;107781;1260;61095;-69
2022/10/26 08:13:44;;;;;;;10.10;7.00;;;;;;;15.55;76.58;101431.98;107618;1270;62779;-72
2022/10/26 08:16:13;;;;;;;10.80;7.30;;;;;;;15.54;76.21;101429.61;107901;1265;61514;-71
2022/10/26 08:18:41;;;;;;;11.20;7.40;;;;;;;15.55;75.76;101428.98;107783;1260;70392;-72
2022/10/26 08:21:11;;;;;;;9.60;6.50;;;;;;;15.61;76.02;101423.54;107775;1264;63039;-71
2022/10/26 08:23:48;;;;;;;12.40;6.40;;;;;;;15.71;76.22;101424.33;107760;1267;57762;-72
2022/10/26 08:26:17;;;;;;;10.10;6.60;;;;;;;15.90;75.02;101422.71;107841;1264;60446;-72
2022/10/26 08:28:48;;;;;;;11.50;6.90;;;;;;;15.89;74.69;101418.13;107725;1263;73832;-71
2022/10/26 08:31:17;;;;;;;10.70;6.10;;;;;;;15.76;75.03;101414.23;107782;1260;62013;-73
2022/10/26 08:33:45;;;;;;;11.80;7.10;;;;;;;15.78;74.88;101413.08;107765;1261;70074;-73
2022/10/26 08:36:20;;;;;;;12.60;7.20;;;;;;;15.86;74.93;101414.79;107740;1270;63515;-70
2022/10/26 08:38:48;;;;;;;9.20;6.00;;;;;;;16.00;74.80;101415.91;107503;1265;57657;-71
2022/10/26 08:41:22;;;;;;;7.90;5.50;;;;;;;16.11;73.87;101417.52;107721;1256;57089;-71
2022/10/26 08:43:59;;;;;;;11.80;6.40;;;;;;;16.15;73.04;101419.96;107768;1260;62870;-71
2022/10/26 08:46:41;;;;;;;10.30;6.20;;;;;;;15.98;73.16;101429.10;107846;1264;70307;-69
2022/10/26 08:49:28;;;;;;;12.80;6.50;;;;;;;16.01;73.61;101424.10;107745;1266;59131;-70
2022/10/26 08:52:01;;;;;;;11.10;6.10;;;;;;;16.14;72.80;101424.94;107695;1260;62416;-70
2022/10/26 08:54:42;;;;;;;;;;;;;;;16.07;72.60;101423.98;107715;1266;62255;-71
2022/10/26 08:57:23;;;;;;;8.80;5.80;;;;;;;16.23;72.61;101425.44;107797;1270;60640;-73
2022/10/26 09:00:09;;;;;;;8.20;5.60;;;;;;;16.33;71.80;101431.45;107843;1267;71667;-72
2022/10/26 09:02:37;;;;;;;8.30;5.50;;;;;;;16.46;71.60;101434.89;107929;1264;72794;-72
2022/10/26 09:05:37;;;;;;;8.20;4.80;;;;;;;16.49;71.21;101429.38;107731;1269;60227;-72
2022/10/26 09:08:26;;;;;;;7.40;4.20;;;;;;;16.58;70.58;101440.70;107773;1262;73696;-71
2022/10/26 09:11:30;;;;;;;9.40;3.80;;;;;;;16.61;69.31;101433.20;107768;1263;60603;-71
2022/10/26 09:14:23;;;;;;;9.10;5.60;;;;;;;16.66;68.92;101444.23;107771;1268;57799;-72
2022/10/26 09:17:36;;;;;;;10.90;6.10;;;;;;;16.66;69.07;101452.32;107625;1268;73495;-72
2022/10/26 09:20:13;;;;;;;9.00;6.10;;;;;;;16.70;69.39;101458.48;107767;1255;62281;-72
2022/10/26 09:22:57;;;;;;;10.00;5.70;;;;;;;16.85;69.31;101461.65;107676;1260;69187;-72
2022/10/26 09:25:38;;;;;;;10.10;5.90;;;;;;;16.88;68.74;101453.60;107683;1267;63651;-72
2022/10/26 09:28:17;;;;;;;9.50;5.90;;;;;;;17.00;68.87;101453.98;107628;1256;57155;-69
2022/10/26 09:30:47;;;;;;;11.50;5.80;;;;;;;17.19;68.32;101457.02;107660;1262;61165;-69
2022/10/26 09:33:21;;;;;;;10.60;5.70;;;;;;;17.30;67.66;101460.77;107499;1259;73264;-69
2022/10/26 09:36:02;;;;;;;10.20;6.70;;;;;;;17.45;66.81;101450.84;107854;1255;72394;-71
2022/10/26 09:38:34;;;;;;;8.70;5.90;;;;;;;17.30;67.54;101453.58;107541;1259;60251;-72
2022/10/26 09:41:15;;;;;;;9.00;6.70;;;;;;;17.44;66.83;101456.59;107582;1261;73881;-69
2022/10/26 09:44:04;;;;;;;10.20;6.50;;;;;;;17.39;66.29;101457.36;107615;1260;60781;-69
2022/10/26 09:47:08;;;;;;;8.80;5.70;;;;;;;17.28;66.75;101457.98;107793;1264;57204;-68
2022/10/26 09:49:43;;;;;;;;;;;;;;;17.27;66.87;101461.29;107593;1257;73454;-69
2022/10/26 09:52:12;;;;;;;8.20;5.60;;;;;;;17.56;66.93;101459.72;107813;1257;71743;-69
2022/10/26 09:54:41;;;;;;;9.60;6.30;;;;;;;17.66;65.91;101465.45;107874;1267;60997;-70
2022/10/26 09:57:14;;;;;;;8.60;5.80;;;;;;;17.68;65.00;101460.20;107785;1263;63233;-73
2022/10/26 09:59:46;;;;;;;8.70;5.30;;;;;;;17.65;64.86;101461.92;107897;1258;57665;-74
2022/10/26 10:02:42;;;;;;;8.70;5.60;;;;;;;17.59;64.99;101456.48;107762;1260;57668;-72
2022/10/26 10:05:34;;;;;;;6.10;4.80;;;;;;;17.47;65.18;101460.52;107885;1258;73480;-73
2022/10/26 10:08:26;;;;;;;12.30;5.20;;;;;;;17.34;65.32;101459.42;107949;1261;62001;-72
2022/10/26 10:11:08;;;;;;;6.10;4.90;;;;;;;17.51;64.72;101458.38;107894;1267;70338;-74
2022/10/26 10:13:41;;;;;;;8.20;5.10;;;;;;;17.59;64.67;101464.05;107877;1261;63459;-72
2022/10/26 10:16:09;;;;;;;6.90;5.10;;;;;;;17.62;64.89;101460.03;107888;1263;57198;-72
2022/10/26 10:18:40;;;;;;;6.30;5.10;;;;;;;17.81;64.36;101458.20;107941;1263;57570;-73
2022/10/26 10:21:09;;;;;;;10.30;5.20;;;;;;;17.87;64.71;101459.25;107872;1270;61967;-73
2022/10/26 10:23:54;;;;;;;8.10;5.00;;;;;;;17.97;64.97;101456.48;108006;1261;60847;-74
2022/10/26 10:26:22;;;;;;;7.40;5.10;;;;;;;18.10;64.06;101456.41;108001;1255;71110;-73
2022/10/26 10:29:00;;;;;;;7.20;4.90;;;;;;;18.24;63.23;101454.91;107841;1264;63162;-73
2022/10/26 10:31:32;;;;;;;7.00;5.40;;;;;;;18.46;61.68;101455.35;107854;1260;61110;-72
2022/10/26 10:34:14;;;;;;;11.10;4.80;;;;;;;18.59;61.55;101448.98;107877;1263;57633;-73
2022/10/26 10:36:43;;;;;;;7.20;4.80;;;;;;;18.59;60.68;101455.34;107867;1260;62146;-72
2022/10/26 10:39:38;;;;;;;7.80;4.90;;;;;;;18.54;60.37;101457.50;108024;1266;63305;-73
2022/10/26 10:42:22;;;;;;;6.00;4.60;;;;;;;18.68;59.46;101455.24;107802;1259;60270;-74
2022/10/26 10:44:54;;;;;;;8.70;5.00;;;;;;;18.65;59.48;101444.00;107994;1258;74465;-73
2022/10/26 10:47:27;;;;;;;6.70;4.30;;;;;;;18.52;59.20;101448.17;107878;1264;60807;-72
2022/10/26 10:50:04;;;;;;;8.80;4.60;;;;;;;18.42;59.22;101450.40;107733;1260;61184;-73
2022/10/26 10:52:34;;;;;;;5.70;4.30;;;;;;;18.41;58.88;101454.94;107913;1258;73859;-73
2022/10/26 10:55:12;;;;;;;7.30;4.90;;;;;;;18.26;59.39;101448.39;107968;1260;62553;-74
2022/10/26 10:57:55;;;;;;;5.90;4.50;;;;;;;18.46;58.81;101456.72;107911;1263;69026;-73
2022/10/26 11:00:26;;;;;;;7.50;4.50;;;;;;;18.59;58.53;101448.09;107921;1264;63185;-74
2022/10/26 11:03:24;;;;;;;7.30;4.30;;;;;;;18.63;58.05;101449.64;107833;1260;61145;-72
2022/10/26 11:06:16;;;;;;;6.20;4.20;;;;;;;18.68;57.91;101454.63;107779;1266;57688;-74
2022/10/26 11:09:27;;;;;;;7.30;3.90;;;;;;;18.75;57.26;101455.02;107881;1266;62149;-73
2022/10/26 11:12:14;;;;;;;7.20;4.00;;;;;;;18.88;56.86;101461.38;107444;1266;60818;-72
2022/10/26 11:14:53;;;;;;;6.60;3.90;;;;;;;18.74;56.85;101466.62;107247;1274;59156;-70
2022/10/26 11:17:28;;;;;;;4.10;3.50;;;;;;;18.73;57.12;101454.23;107644;1263;72843;-73
2022/10/26 11:20:02;;;;;;;8.20;4.00;;;;;;;18.74;56.84;101452.33;107849;1263;57436;-73
2022/10/26 11:23:09;;;;;;;5.80;3.90;;;;;;;18.47;57.29;101455.63;107794;1261;57712;-73
2022/10/26 11:25:58;;;;;;;6.50;3.60;;;;;;;18.77;57.14;101449.77;107891;1258;62049;-74
2022/10/26 11:28:41;;;;;;;5.80;3.70;;;;;;;19.19;56.27;101456.70;107812;1260;71063;-75
2022/10/26 11:31:24;;;;;;;5.30;3.80;;;;;;;19.33;55.64;101449.81;107946;1261;59596;-74
2022/10/26 11:34:16;;;;;;;5.20;3.00;;;;;;;19.14;56.15;101446.55;107843;1269;62388;-74
2022/10/26 11:36:51;;;;;;;5.30;3.00;;;;;;;19.28;55.39;101446.73;107857;1256;56941;-74
2022/10/26 11:39:46;;;;;;;8.10;3.20;;;;;;;19.25;55.25;101446.03;107807;1269;60124;-74
2022/10/26 11:42:20;;;;;;;6.90;2.50;;;;;;;19.20;55.18;101451.22;107837;1260;62936;-72
2022/10/26 11:45:01;;;;;;;5.60;3.10;;;;;;;19.09;55.00;101452.55;107932;1255;61495;-73
2022/10/26 11:47:43;;;;;;;3.60;2.50;;;;;;;18.99;54.91;101451.41;107791;1259;59188;-74